Portada
METAR-TAF:

METAR-TAF

Aeroports :

Aeroport Internacional Quatro de Fevereiro

Luanda, Angola

latitud: 08-51S, longitud: 013-14E, altitud: 74 m

Observació

L'informe es va fer fa 50 minuts, a les 06:00 UTC
Vent 3 kt amb direcció variable
Temperatura 23°C
Humitat 83%
Pressió 1014 hPa
Visibilitat: 9000 m
Escasses núvols a una alçada de 1800 ft
Cel ennuvolat a una alçada de 2000 ft

METAR: FNLU 280600Z VRB03KT 9000 FEW018 BKN020 23/20 Q1014

Hora: 07:50 (06:50 UTC)

Pronòstic

L'informe es va fer fa 1 hora i 50 minuts, a les 05:00 UTC
Pronòstic vàlid del 28 a les 06 UTC al 29 a les 12 UTC
Vent 3 kt amb direcció variable
Visibilitat: 8000 m
Escasses núvols a una alçada de 1500 ft
Cel ennuvolat a una alçada de 2000 ft
Evolucionant progressivament
l' 28 a les 10 UTC al 28 a les 12 UTC
Vent 10 kt del Oest
Evolucionant progressivament
l' 28 a les 18 UTC al 28 a les 20 UTC
Vent 5 kt del Sud/Sud-Oest

TAF: FNLU 280500Z 2806/2912 VRB03KT 8000 FEW015 BKN020 BECMG 2810/2812 27010KT BECMG 2818/2820 21005KT

Observacions i pronòstics meteorològics de més de 4000 aeroports (METAR i TAF).

Les estacions disponibles són els punts grocs i vermells al mapa.

Posi el ratolí al punt desitjat per veure el nom de l'estació.

Feu clic per veure les observacions i els pronòstics meteorològics.

Per canviar el mapa: feu clic els botons verds amb una creu de color negre per apropar; al botó verd amb un guió per allunyar la imatge; o en les fletxes verdes per a mapes adjacents.


METAR-TAF: